Time;durP1;ratioP1;P1;durP2;ratioP2;P2;SDS_P1;SDS_P2;PMS_P1;PMS_P2;Temp;Humidity;BMP_temperature;BMP_pressure;BME280_temperature;BME280_humidity;BME280_pressure;Samples;Min_cycle;Max_cycle;Signal;HPM_P1;HPM_P2
2021/04/08 00:00:14;;;;;;;0.10;0.10;;;3.90;99.90;;;;;;4977375;28;20645;-84
2021/04/08 00:02:43;;;;;;;0.20;0.20;;;3.90;99.90;;;;;;4953670;28;20263;-83
2021/04/08 00:05:10;;;;;;;1.47;0.50;;;3.80;99.90;;;;;;4949197;28;20683;-83
2021/04/08 00:07:36;;;;;;;0.23;0.20;;;3.60;99.90;;;;;;4950388;28;20647;-83
2021/04/08 00:10:02;;;;;;;0.10;0.10;;;3.60;99.90;;;;;;4959782;28;20242;-82
2021/04/08 00:12:28;;;;;;;1.83;0.67;;;3.60;99.90;;;;;;4945574;28;20300;-83
2021/04/08 00:15:08;;;;;;;0.00;0.00;;;3.70;99.90;;;;;;4950545;29;20356;-84
2021/04/08 00:17:33;;;;;;;0.30;0.20;;;3.70;99.90;;;;;;4952793;29;20201;-84
2021/04/08 00:19:59;;;;;;;0.00;0.00;;;3.70;99.90;;;;;;4968111;28;20590;-83
2021/04/08 00:22:24;;;;;;;0.10;0.10;;;3.70;99.90;;;;;;4975789;28;20205;-82
2021/04/08 00:24:50;;;;;;;0.10;0.10;;;3.70;99.90;;;;;;4948805;29;20558;-84
2021/04/08 00:27:16;;;;;;;0.20;0.20;;;3.70;99.90;;;;;;4943417;28;20193;-84
2021/04/08 00:29:42;;;;;;;0.03;0.03;;;3.70;99.90;;;;;;4954773;28;20595;-84
2021/04/08 00:32:07;;;;;;;0.20;0.20;;;3.70;99.90;;;;;;4957006;28;20211;-82
2021/04/08 00:34:33;;;;;;;0.13;0.13;;;3.60;99.90;;;;;;4939841;29;20213;-82
2021/04/08 00:36:59;;;;;;;0.20;0.20;;;3.60;99.90;;;;;;4957622;28;20301;-83
2021/04/08 00:39:31;;;;;;;0.33;0.23;;;3.70;99.90;;;;;;4973135;28;20215;-83
2021/04/08 00:41:58;;;;;;;0.10;0.10;;;3.70;99.90;;;;;;4945406;28;20216;-83
2021/04/08 00:44:23;;;;;;;0.40;0.13;;;3.70;99.90;;;;;;4977742;28;20254;-83
2021/04/08 00:46:49;;;;;;;0.10;0.10;;;3.60;99.90;;;;;;4956931;28;20680;-83
2021/04/08 00:49:14;;;;;;;0.10;0.10;;;3.50;99.90;;;;;;4951019;28;20658;-83
2021/04/08 00:51:40;;;;;;;0.37;0.23;;;3.50;99.90;;;;;;4970121;28;20553;-84
2021/04/08 00:54:06;;;;;;;0.10;0.10;;;3.50;99.90;;;;;;4969699;28;20254;-82
2021/04/08 00:56:32;;;;;;;0.20;0.20;;;3.60;99.90;;;;;;4981762;28;20186;-83
2021/04/08 00:59:22;;;;;;;0.17;0.17;;;3.50;99.90;;;;;;4951597;28;20190;-83
2021/04/08 01:01:48;;;;;;;0.13;0.13;;;3.50;99.90;;;;;;4987280;28;20299;-83
2021/04/08 01:04:14;;;;;;;0.10;0.10;;;3.50;99.90;;;;;;4964981;28;20538;-82
2021/04/08 01:06:40;;;;;;;0.03;0.03;;;3.40;99.90;;;;;;4969769;28;20188;-83
2021/04/08 01:09:05;;;;;;;0.00;0.00;;;3.20;99.90;;;;;;4954231;28;20225;-83
2021/04/08 01:11:31;;;;;;;0.00;0.00;;;3.10;99.90;;;;;;4975855;28;20237;-83
2021/04/08 01:13:57;;;;;;;0.03;0.03;;;3.10;99.90;;;;;;4947096;28;20265;-84
2021/04/08 01:16:37;;;;;;;0.00;0.00;;;2.90;99.90;;;;;;4969431;28;20217;-83
2021/04/08 01:19:32;;;;;;;0.10;0.10;;;2.90;99.90;;;;;;4956646;28;20237;-83
2021/04/08 01:22:30;;;;;;;0.10;0.10;;;2.90;99.90;;;;;;4958063;28;20207;-83
2021/04/08 01:25:14;;;;;;;0.10;0.10;;;2.90;99.90;;;;;;4930999;29;20220;-84
2021/04/08 01:28:14;;;;;;;0.20;0.20;;;2.90;99.90;;;;;;4940793;29;20165;-82
2021/04/08 01:30:49;;;;;;;0.20;0.10;;;2.90;99.90;;;;;;4952147;29;20182;-85
2021/04/08 01:33:24;;;;;;;0.00;0.00;;;2.90;99.90;;;;;;4940142;28;20213;-82
2021/04/08 01:35:50;;;;;;;0.00;0.00;;;2.90;99.90;;;;;;4976462;28;20190;-84
2021/04/08 01:38:26;;;;;;;0.30;0.30;;;2.90;99.90;;;;;;4958642;28;20181;-82
2021/04/08 01:40:52;;;;;;;0.13;0.13;;;2.80;99.90;;;;;;4958620;29;20160;-82
2021/04/08 01:43:22;;;;;;;0.23;0.23;;;2.80;99.90;;;;;;4948476;28;20274;-83
2021/04/08 01:45:50;;;;;;;0.10;0.10;;;2.70;99.90;;;;;;4959740;28;20193;-83
2021/04/08 01:48:16;;;;;;;0.30;0.20;;;2.70;99.90;;;;;;4958430;28;20242;-83
2021/04/08 01:50:58;;;;;;;0.10;0.10;;;2.60;99.90;;;;;;4950466;29;20216;-84
2021/04/08 01:53:26;;;;;;;0.00;0.00;;;2.60;99.90;;;;;;4983503;28;20695;-83
2021/04/08 01:55:55;;;;;;;0.10;0.10;;;2.50;99.90;;;;;;4959261;28;20208;-83
2021/04/08 01:58:21;;;;;;;0.47;0.47;;;2.50;99.90;;;;;;4953534;28;20215;-83
2021/04/08 02:00:48;;;;;;;0.10;0.10;;;2.60;99.90;;;;;;4956598;28;20192;-82
2021/04/08 02:03:15;;;;;;;0.00;0.00;;;2.60;99.90;;;;;;4970357;28;20228;-82
2021/04/08 02:05:41;;;;;;;0.10;0.10;;;2.60;99.90;;;;;;4952647;28;20567;-82
2021/04/08 02:08:08;;;;;;;0.00;0.00;;;2.60;99.90;;;;;;4939856;29;20217;-82
2021/04/08 02:10:34;;;;;;;0.10;0.10;;;2.60;99.90;;;;;;4954882;28;20188;-82
2021/04/08 02:13:00;;;;;;;1.40;1.30;;;2.60;99.90;;;;;;4945094;28;20244;-82
2021/04/08 02:15:27;;;;;;;0.27;0.27;;;2.50;99.90;;;;;;4946196;29;20222;-82
2021/04/08 02:17:55;;;;;;;0.10;0.10;;;2.50;99.90;;;;;;4952512;29;20217;-84
2021/04/08 02:20:24;;;;;;;0.10;0.10;;;2.50;99.90;;;;;;4954121;29;20194;-83
2021/04/08 02:22:55;;;;;;;0.27;0.27;;;2.50;99.90;;;;;;4967049;28;20253;-82
2021/04/08 02:26:02;;;;;;;0.43;0.37;;;2.50;99.90;;;;;;4949078;28;20221;-88
2021/04/08 02:28:30;;;;;;;3.13;0.63;;;2.40;99.90;;;;;;4952838;28;20195;-83
2021/04/08 02:30:58;;;;;;;0.20;0.20;;;2.40;99.90;;;;;;4957875;28;20224;-86
2021/04/08 02:33:26;;;;;;;0.13;0.13;;;2.40;99.90;;;;;;4948982;28;20208;-84
2021/04/08 02:35:52;;;;;;;0.10;0.10;;;2.40;99.90;;;;;;4962721;28;20181;-83
2021/04/08 02:38:21;;;;;;;0.10;0.10;;;2.40;99.90;;;;;;4963669;28;20601;-84
2021/04/08 02:40:47;;;;;;;0.20;0.17;;;2.40;99.90;;;;;;4957477;29;20198;-83
2021/04/08 02:43:13;;;;;;;0.20;0.20;;;2.40;99.90;;;;;;4962254;28;20196;-84
2021/04/08 02:45:39;;;;;;;0.43;0.43;;;2.40;99.90;;;;;;4972238;28;20302;-83
2021/04/08 02:48:10;;;;;;;0.00;0.00;;;2.40;99.90;;;;;;4967878;28;20177;-83
2021/04/08 02:50:37;;;;;;;0.50;0.20;;;2.30;99.90;;;;;;4991517;28;20176;-83
2021/04/08 02:53:38;;;;;;;9.23;0.50;;;2.30;99.90;;;;;;4980162;28;20208;-83
2021/04/08 02:56:22;;;;;;;0.10;0.10;;;2.30;99.90;;;;;;4954694;28;20171;-84
2021/04/08 02:58:48;;;;;;;0.50;0.30;;;2.30;99.90;;;;;;4989973;28;20220;-84
2021/04/08 03:01:18;;;;;;;0.10;0.10;;;2.30;99.90;;;;;;4963483;28;20642;-83
2021/04/08 03:03:51;;;;;;;0.00;0.00;;;2.30;99.90;;;;;;4952509;29;20224;-83
2021/04/08 03:06:17;;;;;;;0.10;0.10;;;2.30;99.90;;;;;;4974693;28;20226;-84
2021/04/08 03:08:47;;;;;;;0.10;0.10;;;2.30;99.90;;;;;;4956444;28;20193;-83
2021/04/08 03:11:15;;;;;;;0.10;0.10;;;2.30;99.90;;;;;;4963376;28;20180;-84
2021/04/08 03:13:45;;;;;;;0.00;0.00;;;2.20;99.90;;;;;;4977241;28;20738;-83
2021/04/08 03:16:20;;;;;;;0.20;0.20;;;2.20;99.90;;;;;;4979858;28;20184;-84
2021/04/08 03:18:48;;;;;;;0.10;0.10;;;2.00;99.90;;;;;;4950139;28;20269;-83
2021/04/08 03:21:14;;;;;;;0.10;0.10;;;1.90;99.90;;;;;;4980112;28;20668;-84
2021/04/08 03:23:52;;;;;;;0.07;0.07;;;1.90;99.90;;;;;;4963945;28;20212;-82
2021/04/08 03:26:19;;;;;;;0.00;0.00;;;1.80;99.90;;;;;;4953647;29;20275;-83
2021/04/08 03:28:45;;;;;;;0.10;0.10;;;1.80;99.90;;;;;;4965772;28;20691;-83
2021/04/08 03:31:12;;;;;;;0.00;0.00;;;1.80;99.90;;;;;;4957298;29;20272;-83
2021/04/08 03:33:38;;;;;;;0.00;0.00;;;1.90;99.90;;;;;;4954292;28;20212;-83
2021/04/08 03:36:05;;;;;;;0.00;0.00;;;2.00;99.90;;;;;;4978537;28;20272;-83
2021/04/08 03:38:31;;;;;;;1.07;0.53;;;2.00;99.90;;;;;;4960637;28;20197;-83
2021/04/08 03:40:58;;;;;;;0.10;0.10;;;2.10;99.90;;;;;;4954155;29;20194;-86
2021/04/08 03:43:25;;;;;;;1.60;0.43;;;2.00;99.90;;;;;;4970484;28;20208;-83
2021/04/08 03:45:51;;;;;;;0.20;0.20;;;2.00;99.90;;;;;;4963127;28;20236;-83
2021/04/08 03:48:18;;;;;;;0.00;0.00;;;2.00;99.90;;;;;;4980232;28;20197;-83
2021/04/08 03:50:47;;;;;;;0.00;0.00;;;2.00;99.90;;;;;;4972092;28;20556;-83
2021/04/08 03:53:14;;;;;;;0.10;0.10;;;1.90;99.90;;;;;;4977027;28;20209;-84
2021/04/08 03:55:40;;;;;;;0.10;0.10;;;2.00;99.90;;;;;;4953763;28;20191;-84
2021/04/08 03:58:09;;;;;;;0.10;0.10;;;2.10;99.90;;;;;;4963472;28;20187;-83
2021/04/08 04:00:35;;;;;;;0.63;0.60;;;2.10;99.90;;;;;;4953155;29;20225;-84
2021/04/08 04:03:01;;;;;;;0.53;0.53;;;2.20;99.90;;;;;;4973656;28;20202;-83
2021/04/08 04:05:27;;;;;;;0.10;0.10;;;2.30;99.90;;;;;;4974515;28;20194;-83
2021/04/08 04:07:53;;;;;;;0.33;0.33;;;2.20;99.90;;;;;;4969074;28;20185;-83
2021/04/08 04:10:21;;;;;;;0.23;0.23;;;2.30;99.90;;;;;;4958005;28;20747;-84
2021/04/08 04:12:49;;;;;;;0.10;0.10;;;2.30;99.90;;;;;;4960115;28;20295;-84
2021/04/08 04:15:16;;;;;;;0.10;0.10;;;2.30;99.90;;;;;;4973851;28;20246;-84
2021/04/08 04:17:41;;;;;;;0.10;0.10;;;2.40;99.90;;;;;;4980230;28;20184;-84
2021/04/08 04:20:08;;;;;;;0.00;0.00;;;2.40;99.90;;;;;;4955261;28;20189;-84
2021/04/08 04:22:39;;;;;;;0.10;0.10;;;2.40;99.90;;;;;;4960844;28;20212;-84
2021/04/08 04:25:07;;;;;;;0.10;0.10;;;2.40;99.90;;;;;;4959100;28;20191;-84
2021/04/08 04:27:33;;;;;;;0.07;0.07;;;2.40;99.90;;;;;;4943347;29;20190;-83
2021/04/08 04:29:59;;;;;;;0.10;0.10;;;2.50;99.90;;;;;;4970149;28;20567;-84
2021/04/08 04:32:25;;;;;;;0.00;0.00;;;2.50;99.90;;;;;;4969662;28;20204;-85
2021/04/08 04:34:50;;;;;;;0.20;0.20;;;2.50;99.90;;;;;;4964459;28;20208;-84
2021/04/08 04:37:16;;;;;;;0.00;0.00;;;2.50;99.90;;;;;;4963368;28;20257;-84
2021/04/08 04:39:44;;;;;;;0.40;0.40;;;2.60;99.90;;;;;;4972199;28;20207;-85
2021/04/08 04:42:10;;;;;;;0.23;0.23;;;2.60;99.90;;;;;;4963262;28;20203;-85
2021/04/08 04:44:37;;;;;;;0.47;0.47;;;2.60;99.90;;;;;;4963268;28;20203;-85
2021/04/08 04:47:03;;;;;;;3.90;0.40;;;2.60;99.90;;;;;;4960588;28;20179;-83
2021/04/08 04:49:28;;;;;;;0.17;0.17;;;2.70;99.90;;;;;;4958355;28;20188;-86
2021/04/08 04:51:54;;;;;;;0.33;0.33;;;2.70;99.90;;;;;;4960825;28;20204;-87
2021/04/08 04:54:20;;;;;;;0.30;0.30;;;2.80;99.90;;;;;;4974008;28;20232;-87
2021/04/08 04:56:45;;;;;;;0.20;0.20;;;2.80;99.90;;;;;;4970798;28;20585;-85
2021/04/08 04:59:11;;;;;;;0.27;0.27;;;2.90;99.90;;;;;;4970510;28;20691;-87
2021/04/08 05:01:36;;;;;;;0.10;0.10;;;2.90;99.90;;;;;;4954715;28;20732;-82
2021/04/08 05:04:02;;;;;;;0.00;0.00;;;2.90;99.90;;;;;;4974800;28;20204;-84
2021/04/08 05:06:28;;;;;;;0.10;0.10;;;3.00;99.90;;;;;;4956145;28;20248;-83
2021/04/08 05:08:53;;;;;;;0.10;0.10;;;3.00;99.90;;;;;;4970371;28;20200;-85
2021/04/08 05:11:19;;;;;;;0.10;0.10;;;3.00;99.90;;;;;;4958030;28;20194;-87
2021/04/08 05:14:07;;;;;;;0.10;0.10;;;3.10;99.90;;;;;;4952194;28;20246;-87
2021/04/08 05:16:32;;;;;;;0.20;0.20;;;3.10;99.90;;;;;;4952573;28;20218;-86
2021/04/08 05:18:58;;;;;;;0.73;0.40;;;3.10;99.90;;;;;;4969553;28;20185;-86
2021/04/08 05:21:43;;;;;;;0.20;0.20;;;3.10;99.90;;;;;;4947122;29;20216;-87
2021/04/08 05:24:09;;;;;;;0.10;0.10;;;3.10;99.90;;;;;;4949479;28;20193;-90
2021/04/08 05:26:35;;;;;;;0.30;0.30;;;3.10;99.90;;;;;;4972223;28;20191;-89
2021/04/08 05:29:00;;;;;;;0.20;0.20;;;3.10;99.90;;;;;;4956627;28;20191;-90
2021/04/08 05:31:26;;;;;;;0.53;0.27;;;3.00;99.90;;;;;;4951529;28;20188;-89
2021/04/08 05:37:05;;;;;;;0.60;0.60;;;3.00;99.90;;;;;;4968855;28;20224;-85
2021/04/08 05:39:30;;;;;;;0.30;0.30;;;3.10;99.90;;;;;;4957780;28;20595;-84
2021/04/08 05:42:29;;;;;;;0.37;0.37;;;3.10;99.90;;;;;;4971825;28;20723;-83
2021/04/08 05:44:55;;;;;;;0.10;0.10;;;3.10;99.90;;;;;;4971340;28;20193;-86
2021/04/08 05:47:20;;;;;;;0.20;0.20;;;3.20;99.90;;;;;;4952304;28;20193;-83
2021/04/08 05:49:46;;;;;;;0.27;0.27;;;3.20;99.90;;;;;;4954229;28;20658;-84
2021/04/08 05:52:45;;;;;;;0.20;0.20;;;3.20;99.90;;;;;;4973245;28;20215;-83
2021/04/08 05:55:11;;;;;;;0.40;0.40;;;3.30;99.90;;;;;;4970030;28;20204;-83
2021/04/08 05:57:37;;;;;;;0.17;0.17;;;3.20;99.90;;;;;;4956582;28;20184;-82
2021/04/08 06:00:06;;;;;;;0.90;0.60;;;3.30;99.90;;;;;;4953417;28;20560;-83
2021/04/08 06:02:41;;;;;;;0.10;0.10;;;3.30;99.90;;;;;;4949450;28;20588;-84
2021/04/08 06:05:08;;;;;;;0.20;0.20;;;3.40;99.90;;;;;;4973331;28;20204;-83
2021/04/08 06:07:33;;;;;;;0.10;0.10;;;3.40;99.90;;;;;;4964526;28;20188;-83
2021/04/08 06:09:59;;;;;;;0.10;0.10;;;3.50;99.90;;;;;;4955985;28;20198;-83
2021/04/08 06:12:30;;;;;;;0.20;0.20;;;3.60;99.90;;;;;;4955003;28;20330;-86
2021/04/08 06:14:56;;;;;;;0.20;0.20;;;3.70;99.90;;;;;;4973005;28;20208;-87
2021/04/08 06:17:22;;;;;;;0.10;0.10;;;3.70;99.90;;;;;;4943992;28;20209;-86
2021/04/08 06:19:47;;;;;;;0.30;0.30;;;3.90;99.90;;;;;;4973267;28;20654;-86
2021/04/08 06:22:13;;;;;;;0.10;0.10;;;4.00;99.90;;;;;;4955113;28;20301;-83
2021/04/08 06:24:47;;;;;;;0.17;0.17;;;4.10;99.90;;;;;;4948187;28;20229;-84
2021/04/08 06:27:13;;;;;;;0.40;0.40;;;4.10;99.90;;;;;;4970295;28;20222;-83
2021/04/08 06:29:38;;;;;;;0.67;0.53;;;4.20;99.90;;;;;;4967373;28;20197;-83
2021/04/08 06:32:04;;;;;;;0.20;0.20;;;4.30;99.90;;;;;;4974377;28;20224;-83
2021/04/08 06:34:30;;;;;;;0.40;0.40;;;4.40;99.90;;;;;;4958925;28;20595;-82
2021/04/08 06:36:55;;;;;;;0.50;0.23;;;4.40;99.90;;;;;;4962910;28;20189;-83
2021/04/08 06:39:21;;;;;;;0.20;0.20;;;4.50;99.90;;;;;;4958722;28;20184;-84
2021/04/08 06:41:47;;;;;;;0.30;0.30;;;4.60;99.90;;;;;;4944332;28;20214;-85
2021/04/08 06:44:16;;;;;;;0.37;0.37;;;4.60;99.90;;;;;;4947202;29;20286;-83
2021/04/08 06:46:44;;;;;;;0.40;0.40;;;4.70;99.90;;;;;;4970883;28;20203;-83
2021/04/08 06:49:29;;;;;;;0.17;0.17;;;5.00;99.90;;;;;;4974354;28;20185;-83
2021/04/08 06:51:57;;;;;;;0.20;0.20;;;5.10;99.90;;;;;;4943545;28;20566;-83
2021/04/08 06:54:24;;;;;;;0.40;0.40;;;5.30;99.90;;;;;;4961772;28;20750;-82
2021/04/08 06:56:57;;;;;;;0.53;0.53;;;5.40;99.90;;;;;;4967444;28;20652;-84
2021/04/08 06:59:23;;;;;;;0.20;0.20;;;5.70;99.90;;;;;;4955871;28;20188;-83
2021/04/08 07:01:49;;;;;;;0.10;0.10;;;5.70;99.90;;;;;;4949020;29;20219;-82
2021/04/08 07:04:17;;;;;;;0.30;0.30;;;5.80;99.90;;;;;;4950819;28;20605;-84
2021/04/08 07:06:44;;;;;;;0.13;0.13;;;5.80;99.90;;;;;;4962346;28;20211;-83
2021/04/08 07:09:12;;;;;;;0.17;0.17;;;5.70;99.90;;;;;;4960360;28;20286;-83
2021/04/08 07:11:39;;;;;;;0.10;0.10;;;5.80;99.90;;;;;;4966083;28;20692;-83
2021/04/08 07:14:07;;;;;;;0.33;0.33;;;5.80;99.90;;;;;;4973652;28;20335;-84
2021/04/08 07:16:33;;;;;;;0.30;0.30;;;5.80;99.90;;;;;;4948435;28;20598;-84
2021/04/08 07:18:59;;;;;;;1.07;0.70;;;5.80;99.90;;;;;;4949675;28;20192;-84
2021/04/08 07:21:53;;;;;;;0.10;0.10;;;5.80;99.90;;;;;;4951881;28;20187;-84
2021/04/08 07:24:20;;;;;;;1.13;0.40;;;5.80;99.90;;;;;;4964353;28;20726;-84
2021/04/08 07:26:58;;;;;;;0.10;0.10;;;5.60;99.90;;;;;;4959625;28;20191;-83
2021/04/08 07:29:44;;;;;;;0.20;0.20;;;5.60;99.90;;;;;;4947993;28;20276;-83
2021/04/08 07:32:19;;;;;;;0.27;0.27;;;5.60;99.90;;;;;;4942489;29;20266;-83
2021/04/08 07:34:47;;;;;;;0.10;0.10;;;5.90;99.90;;;;;;4969113;28;20210;-84
2021/04/08 07:37:13;;;;;;;0.10;0.10;;;6.10;99.90;;;;;;4959882;28;20664;-84
2021/04/08 07:39:40;;;;;;;0.27;0.27;;;6.40;99.90;;;;;;4963647;28;20826;-84
2021/04/08 07:42:17;;;;;;;0.10;0.10;;;6.40;99.90;;;;;;4953256;28;20216;-84
2021/04/08 07:44:50;;;;;;;0.43;0.43;;;6.50;99.90;;;;;;4970450;28;20304;-83
2021/04/08 07:47:21;;;;;;;0.20;0.20;;;6.60;99.90;;;;;;4949036;28;20190;-83
2021/04/08 07:49:48;;;;;;;0.40;0.40;;;6.70;99.90;;;;;;4956403;28;20291;-84
2021/04/08 07:52:26;;;;;;;0.40;0.40;;;6.90;99.90;;;;;;4953051;28;20633;-85
2021/04/08 07:55:00;;;;;;;0.63;0.50;;;7.20;99.90;;;;;;4961229;28;20234;-84
2021/04/08 07:57:26;;;;;;;0.10;0.10;;;7.30;99.90;;;;;;4966085;28;20666;-84
2021/04/08 07:59:52;;;;;;;0.10;0.10;;;7.50;99.90;;;;;;4953254;28;20230;-83
2021/04/08 08:02:23;;;;;;;1.40;0.43;;;7.70;99.90;;;;;;4946112;29;20209;-84
2021/04/08 08:04:49;;;;;;;0.20;0.20;;;8.30;99.90;;;;;;4951925;28;20208;-83
2021/04/08 08:07:28;;;;;;;2.50;0.50;;;8.50;99.90;;;;;;4969531;28;20640;-83
2021/04/08 08:09:59;;;;;;;0.20;0.20;;;8.80;99.90;;;;;;4964385;28;20192;-83
2021/04/08 08:12:32;;;;;;;0.10;0.10;;;9.00;99.90;;;;;;4956433;28;20205;-83
2021/04/08 08:15:13;;;;;;;0.20;0.20;;;9.20;99.90;;;;;;4968280;28;20200;-82
2021/04/08 08:17:38;;;;;;;0.23;0.23;;;9.30;99.90;;;;;;4958199;28;20204;-84
2021/04/08 08:20:05;;;;;;;2.63;0.33;;;9.10;99.90;;;;;;4960767;28;20189;-84
2021/04/08 08:22:35;;;;;;;0.10;0.10;;;8.80;99.90;;;;;;4951686;29;20301;-84
2021/04/08 08:25:01;;;;;;;0.17;0.17;;;8.60;99.90;;;;;;4959381;28;20629;-84
2021/04/08 08:27:41;;;;;;;0.30;0.30;;;8.50;99.90;;;;;;4970911;28;20197;-83
2021/04/08 08:30:11;;;;;;;0.10;0.10;;;8.30;99.90;;;;;;4959811;28;20323;-83
2021/04/08 08:32:36;;;;;;;0.10;0.10;;;8.40;99.90;;;;;;4966955;28;20257;-83
2021/04/08 08:35:03;;;;;;;0.47;0.47;;;8.20;99.90;;;;;;4970612;28;20297;-83
2021/04/08 08:37:30;;;;;;;1.30;1.30;;;8.30;99.90;;;;;;4975713;28;20196;-83
2021/04/08 08:39:55;;;;;;;0.23;0.23;;;8.30;99.90;;;;;;4957204;28;20535;-83
2021/04/08 08:42:23;;;;;;;0.23;0.17;;;8.20;99.90;;;;;;4953692;28;20208;-83
2021/04/08 08:44:51;;;;;;;0.23;0.23;;;8.30;99.90;;;;;;4956138;28;20213;-82
2021/04/08 08:47:22;;;;;;;0.30;0.30;;;8.20;99.90;;;;;;4954521;29;20284;-83
2021/04/08 08:49:51;;;;;;;0.33;0.20;;;8.50;99.90;;;;;;4967093;28;20188;-83
2021/04/08 08:52:22;;;;;;;0.00;0.00;;;8.10;99.90;;;;;;4966876;28;20219;-82
2021/04/08 08:54:49;;;;;;;2.27;0.20;;;8.50;99.90;;;;;;4956512;28;20591;-82
2021/04/08 08:57:16;;;;;;;0.17;0.17;;;8.80;99.90;;;;;;4954636;28;20195;-83
2021/04/08 08:59:44;;;;;;;0.30;0.23;;;9.10;99.90;;;;;;4978340;28;20684;-84
2021/04/08 09:02:10;;;;;;;0.00;0.00;;;9.00;99.90;;;;;;4968601;28;20212;-84
2021/04/08 09:04:36;;;;;;;0.53;0.27;;;9.00;99.90;;;;;;4953619;28;20193;-82
2021/04/08 09:07:06;;;;;;;0.10;0.10;;;9.00;99.90;;;;;;4961182;28;20208;-84
2021/04/08 09:09:33;;;;;;;0.10;0.10;;;9.10;99.90;;;;;;4959845;28;20275;-82
2021/04/08 09:12:07;;;;;;;1.47;1.37;;;9.30;99.90;;;;;;4956756;28;20216;-83
2021/04/08 09:14:33;;;;;;;0.10;0.10;;;9.10;99.90;;;;;;4948614;29;20217;-83
2021/04/08 09:16:59;;;;;;;0.20;0.20;;;8.80;99.90;;;;;;4959220;28;20188;-84
2021/04/08 09:19:33;;;;;;;0.10;0.10;;;9.00;99.90;;;;;;4962118;28;20725;-84
2021/04/08 09:22:00;;;;;;;0.30;0.30;;;9.00;99.90;;;;;;4969220;28;20717;-83
2021/04/08 09:24:32;;;;;;;1.37;0.40;;;9.20;99.90;;;;;;4957204;28;20198;-84
2021/04/08 09:27:01;;;;;;;0.00;0.00;;;9.30;99.90;;;;;;4959932;28;20195;-83
2021/04/08 09:29:46;;;;;;;0.10;0.10;;;9.40;99.90;;;;;;4973192;28;20195;-89
2021/04/08 09:32:35;;;;;;;0.10;0.10;;;9.20;99.90;;;;;;4949482;28;20211;-88
2021/04/08 09:35:11;;;;;;;0.10;0.10;;;9.40;99.90;;;;;;4975264;28;20214;-84
2021/04/08 09:37:46;;;;;;;0.27;0.27;;;9.70;99.90;;;;;;4977166;28;20270;-86
2021/04/08 09:40:21;;;;;;;0.50;0.43;;;9.40;99.90;;;;;;4977887;28;20213;-85
2021/04/08 09:42:47;;;;;;;0.60;0.13;;;9.80;99.90;;;;;;4952737;28;20220;-85
2021/04/08 09:45:15;;;;;;;0.13;0.13;;;10.10;99.90;;;;;;4945925;28;20231;-86
2021/04/08 09:48:12;;;;;;;0.73;0.50;;;10.40;99.90;;;;;;4957400;28;20189;-85
2021/04/08 09:50:59;;;;;;;0.27;0.27;;;10.60;99.90;;;;;;4971677;28;20225;-83
2021/04/08 09:53:49;;;;;;;0.10;0.10;;;10.70;99.90;;;;;;4955416;28;20221;-83
2021/04/08 09:56:15;;;;;;;0.20;0.20;;;11.10;99.90;;;;;;4956942;28;20187;-84
2021/04/08 09:58:40;;;;;;;6.80;0.90;;;10.90;99.90;;;;;;4951847;28;20569;-85
2021/04/08 10:01:09;;;;;;;0.37;0.37;;;10.60;99.90;;;;;;4956483;28;20237;-85
2021/04/08 10:03:43;;;;;;;5.63;0.40;;;10.20;99.90;;;;;;4962058;28;20668;-84
2021/04/08 10:06:24;;;;;;;0.10;0.10;;;10.10;99.90;;;;;;4956914;28;20202;-84
2021/04/08 10:08:50;;;;;;;0.10;0.10;;;10.00;99.90;;;;;;4943828;28;20768;-84
2021/04/08 10:11:30;;;;;;;0.93;0.30;;;9.90;99.90;;;;;;4956998;28;20662;-85
2021/04/08 10:13:56;;;;;;;1.13;0.23;;;9.80;99.90;;;;;;4954173;28;20637;-85
2021/04/08 10:16:32;;;;;;;0.30;0.10;;;9.60;99.90;;;;;;4952025;28;20181;-84
2021/04/08 10:19:00;;;;;;;0.10;0.10;;;9.60;99.90;;;;;;4954877;28;20197;-84
2021/04/08 10:21:26;;;;;;;0.00;0.00;;;9.70;99.90;;;;;;4972511;28;20271;-86
2021/04/08 10:23:53;;;;;;;0.07;0.07;;;9.80;99.90;;;;;;4968708;28;20190;-85
2021/04/08 10:26:31;;;;;;;0.10;0.10;;;9.60;99.90;;;;;;4971632;28;20194;-85
2021/04/08 10:28:59;;;;;;;0.10;0.10;;;9.50;99.90;;;;;;4950389;28;20222;-85
2021/04/08 10:31:29;;;;;;;0.20;0.20;;;9.60;99.90;;;;;;4948524;28;20184;-86
2021/04/08 10:33:56;;;;;;;0.30;0.20;;;9.90;99.90;;;;;;4956195;28;20763;-86
2021/04/08 10:36:34;;;;;;;1.70;0.30;;;9.90;99.90;;;;;;4968997;28;20238;-85
2021/04/08 10:39:17;;;;;;;0.40;0.40;;;9.70;99.90;;;;;;4951413;28;20200;-85
2021/04/08 10:42:06;;;;;;;0.20;0.20;;;9.60;99.90;;;;;;4955044;28;20217;-85
2021/04/08 10:44:46;;;;;;;0.10;0.10;;;9.70;99.90;;;;;;4970915;28;20182;-87
2021/04/08 10:47:33;;;;;;;0.00;0.00;;;9.80;99.90;;;;;;4954736;28;20207;-85
2021/04/08 10:50:00;;;;;;;0.47;0.33;;;9.70;99.90;;;;;;4951168;28;20183;-88
2021/04/08 10:52:29;;;;;;;0.10;0.10;;;9.90;99.90;;;;;;4969648;28;20220;-88
2021/04/08 10:55:00;;;;;;;0.10;0.10;;;9.80;99.90;;;;;;4972388;28;20225;-81
2021/04/08 10:57:27;;;;;;;0.27;0.27;;;9.90;99.90;;;;;;4951471;28;20179;-83
2021/04/08 10:59:54;;;;;;;0.10;0.10;;;9.80;99.90;;;;;;4954644;28;20666;-83
2021/04/08 11:02:35;;;;;;;0.20;0.20;;;10.30;99.90;;;;;;4951218;28;20583;-83
2021/04/08 11:05:05;;;;;;;0.10;0.10;;;10.60;99.90;;;;;;4952459;28;20199;-83
2021/04/08 11:07:39;;;;;;;0.10;0.10;;;10.90;99.90;;;;;;4952173;28;20192;-82
2021/04/08 11:10:17;;;;;;;0.93;0.33;;;11.00;99.90;;;;;;4952453;28;20201;-82
2021/04/08 11:12:45;;;;;;;0.00;0.00;;;11.00;99.90;;;;;;4972268;28;20230;-83
2021/04/08 11:15:13;;;;;;;0.27;0.27;;;11.00;99.90;;;;;;4969411;28;20228;-82
2021/04/08 11:17:45;;;;;;;0.63;0.63;;;11.00;99.90;;;;;;4965222;28;20202;-82
2021/04/08 11:20:13;;;;;;;1.23;1.17;;;10.80;99.90;;;;;;4969686;28;20246;-81
2021/04/08 11:22:45;;;;;;;0.70;0.70;;;10.80;99.90;;;;;;4949703;28;20239;-82
2021/04/08 11:25:13;;;;;;;0.30;0.20;;;10.50;99.90;;;;;;4970182;28;20196;-81
2021/04/08 11:27:43;;;;;;;0.30;0.30;;;10.30;99.90;;;;;;4965757;28;20396;-81
2021/04/08 11:30:38;;;;;;;1.20;1.20;;;10.30;99.90;;;;;;4954797;28;20205;-84
2021/04/08 11:33:08;;;;;;;0.20;0.20;;;10.20;99.90;;;;;;4947013;28;20222;-82
2021/04/08 11:35:42;;;;;;;0.17;0.13;;;10.60;99.90;;;;;;4954118;28;20269;-81
2021/04/08 11:38:14;;;;;;;0.37;0.20;;;10.40;99.90;;;;;;4962989;28;20191;-82
2021/04/08 11:40:44;;;;;;;0.57;0.20;;;11.00;99.90;;;;;;4957021;28;20199;-81
2021/04/08 11:43:23;;;;;;;0.33;0.33;;;10.90;99.90;;;;;;4970036;28;20977;-82
2021/04/08 11:45:50;;;;;;;0.50;0.50;;;10.90;99.90;;;;;;4948312;28;20202;-85
2021/04/08 11:48:18;;;;;;;0.30;0.30;;;11.40;99.90;;;;;;4955641;28;20190;-84
2021/04/08 11:50:45;;;;;;;1.23;0.97;;;11.60;99.90;;;;;;4974140;28;20180;-82
2021/04/08 11:53:33;;;;;;;1.20;0.53;;;11.40;99.90;;;;;;4957601;28;20694;-81
2021/04/08 11:55:58;;;;;;;0.27;0.27;;;11.80;99.90;;;;;;4958964;28;20663;-83
2021/04/08 11:58:33;;;;;;;1.70;0.30;;;12.10;99.90;;;;;;4955086;28;20279;-82
2021/04/08 12:01:11;;;;;;;1.13;0.40;;;12.20;99.90;;;;;;4957335;28;20194;-81
2021/04/08 12:03:42;;;;;;;0.30;0.30;;;11.80;99.90;;;;;;4953206;28;20184;-82
2021/04/08 12:06:16;;;;;;;0.83;0.40;;;11.60;99.90;;;;;;4958033;28;20263;-82
2021/04/08 12:08:48;;;;;;;0.40;0.40;;;11.30;99.90;;;;;;4954605;29;20189;-81
2021/04/08 12:11:15;;;;;;;0.10;0.10;;;11.40;99.90;;;;;;4970826;28;20642;-82
2021/04/08 12:13:43;;;;;;;0.30;0.10;;;11.40;99.90;;;;;;4968953;28;20208;-81
2021/04/08 12:16:25;;;;;;;0.17;0.17;;;11.40;99.90;;;;;;4960260;28;20177;-82
2021/04/08 12:18:52;;;;;;;0.60;0.60;;;11.30;99.90;;;;;;4972722;28;20263;-81
2021/04/08 12:21:18;;;;;;;0.10;0.10;;;11.40;99.90;;;;;;4948147;28;20324;-82
2021/04/08 12:23:43;;;;;;;0.20;0.20;;;11.10;99.90;;;;;;4957103;28;20215;-82
2021/04/08 12:26:10;;;;;;;0.20;0.20;;;11.30;99.90;;;;;;4968051;28;20267;-82
2021/04/08 12:28:36;;;;;;;0.00;0.00;;;11.20;99.90;;;;;;4963303;28;20678;-82
2021/04/08 12:31:02;;;;;;;0.83;0.30;;;11.10;99.90;;;;;;4946345;28;20184;-81
2021/04/08 12:33:33;;;;;;;0.20;0.20;;;10.90;99.90;;;;;;4957287;28;20204;-81
2021/04/08 12:36:04;;;;;;;0.20;0.20;;;10.80;99.90;;;;;;4974266;28;21393;-82
2021/04/08 12:38:30;;;;;;;0.20;0.20;;;10.60;99.90;;;;;;4960564;28;20184;-81
2021/04/08 12:40:58;;;;;;;0.10;0.10;;;10.50;99.90;;;;;;4968189;28;20189;-79
2021/04/08 12:43:25;;;;;;;0.20;0.20;;;10.50;99.90;;;;;;4969647;28;20272;-82
2021/04/08 12:45:50;;;;;;;0.17;0.17;;;10.40;99.90;;;;;;4965923;28;20238;-81
2021/04/08 12:48:16;;;;;;;0.93;0.40;;;10.30;99.90;;;;;;4973086;28;20184;-80
2021/04/08 12:50:44;;;;;;;0.20;0.20;;;10.20;99.90;;;;;;4951170;28;20190;-82
2021/04/08 12:53:11;;;;;;;0.10;0.10;;;10.20;99.90;;;;;;4955911;28;20217;-81
2021/04/08 12:55:37;;;;;;;0.60;0.47;;;10.20;99.90;;;;;;4946852;28;20243;-82
2021/04/08 12:58:03;;;;;;;0.73;0.30;;;10.20;99.90;;;;;;4969042;28;20188;-82
2021/04/08 13:00:29;;;;;;;0.20;0.20;;;10.30;99.90;;;;;;4946338;29;20335;-81
2021/04/08 13:02:55;;;;;;;0.33;0.33;;;10.30;99.90;;;;;;4951180;28;20262;-81
2021/04/08 13:05:21;;;;;;;0.47;0.47;;;10.40;99.90;;;;;;4946732;28;20203;-81
2021/04/08 13:07:47;;;;;;;0.00;0.00;;;10.40;99.90;;;;;;4943150;28;20210;-82
2021/04/08 13:10:13;;;;;;;0.37;0.20;;;10.40;99.90;;;;;;4954332;28;20323;-82
2021/04/08 13:12:40;;;;;;;0.10;0.10;;;10.30;99.90;;;;;;4954158;28;20222;-80